sensor_id;sensor_type;location;lat;lon;timestamp;pressure;altitude;pressure_sealevel;temperature;humidity
26859;BME280;14429;48.346;16.338;2022-08-05T00:02:02;99526.72;;;27.36;41.62
26859;BME280;14429;48.346;16.338;2022-08-05T00:04:27;99522.50;;;27.28;39.47
26859;BME280;14429;48.346;16.338;2022-08-05T00:06:53;99520.81;;;27.46;39.49
26859;BME280;14429;48.346;16.338;2022-08-05T00:09:18;99530.56;;;26.97;41.73
26859;BME280;14429;48.346;16.338;2022-08-05T00:11:44;99516.00;;;27.22;38.96
26859;BME280;14429;48.346;16.338;2022-08-05T00:14:09;99517.53;;;27.74;40.97
26859;BME280;14429;48.346;16.338;2022-08-05T00:16:36;99508.91;;;27.71;40.84
26859;BME280;14429;48.346;16.338;2022-08-05T00:19:02;99512.13;;;28.05;40.58
26859;BME280;14429;48.346;16.338;2022-08-05T00:21:27;99517.06;;;26.64;39.99
26859;BME280;14429;48.346;16.338;2022-08-05T00:23:53;99517.09;;;26.89;39.50
26859;BME280;14429;48.346;16.338;2022-08-05T00:26:18;99512.66;;;27.01;38.94
26859;BME280;14429;48.346;16.338;2022-08-05T00:28:44;99504.19;;;27.09;41.52
26859;BME280;14429;48.346;16.338;2022-08-05T00:31:09;99507.41;;;26.68;40.26
26859;BME280;14429;48.346;16.338;2022-08-05T00:33:36;99502.75;;;26.94;41.72
26859;BME280;14429;48.346;16.338;2022-08-05T00:36:02;99503.81;;;26.93;40.65
26859;BME280;14429;48.346;16.338;2022-08-05T00:38:28;99510.25;;;26.09;43.46
26859;BME280;14429;48.346;16.338;2022-08-05T00:40:55;99502.09;;;25.63;41.64
26859;BME280;14429;48.346;16.338;2022-08-05T00:43:21;99500.22;;;26.41;44.29
26859;BME280;14429;48.346;16.338;2022-08-05T00:45:46;99498.75;;;25.67;41.50
26859;BME280;14429;48.346;16.338;2022-08-05T00:48:13;99499.22;;;25.77;40.95
26859;BME280;14429;48.346;16.338;2022-08-05T00:50:42;99497.69;;;26.33;42.86
26859;BME280;14429;48.346;16.338;2022-08-05T00:53:08;99495.34;;;25.59;41.63
26859;BME280;14429;48.346;16.338;2022-08-05T00:55:33;99494.47;;;25.52;42.03
26859;BME280;14429;48.346;16.338;2022-08-05T00:57:59;99494.09;;;25.55;42.14
26859;BME280;14429;48.346;16.338;2022-08-05T01:00:25;99495.00;;;25.87;41.58
26859;BME280;14429;48.346;16.338;2022-08-05T01:02:51;99485.03;;;26.07;42.90
26859;BME280;14429;48.346;16.338;2022-08-05T01:05:17;99488.84;;;26.44;43.43
26859;BME280;14429;48.346;16.338;2022-08-05T01:07:43;99484.59;;;26.10;40.86
26859;BME280;14429;48.346;16.338;2022-08-05T01:10:09;99487.47;;;25.89;40.99
26859;BME280;14429;48.346;16.338;2022-08-05T01:12:40;99476.75;;;25.42;41.74
26859;BME280;14429;48.346;16.338;2022-08-05T01:15:11;99474.81;;;25.75;41.47
26859;BME280;14429;48.346;16.338;2022-08-05T01:17:39;99465.38;;;25.38;42.54
26859;BME280;14429;48.346;16.338;2022-08-05T01:20:15;99474.22;;;25.40;42.40
26859;BME280;14429;48.346;16.338;2022-08-05T01:23:00;99469.81;;;25.98;44.63
26859;BME280;14429;48.346;16.338;2022-08-05T01:25:42;99467.06;;;25.85;44.74
26859;BME280;14429;48.346;16.338;2022-08-05T01:28:23;99463.59;;;26.42;41.80
26859;BME280;14429;48.346;16.338;2022-08-05T01:30:52;99469.03;;;26.17;43.76
26859;BME280;14429;48.346;16.338;2022-08-05T01:33:22;99471.56;;;26.31;44.34
26859;BME280;14429;48.346;16.338;2022-08-05T01:35:48;99468.19;;;26.10;41.30
26859;BME280;14429;48.346;16.338;2022-08-05T01:38:16;99465.66;;;26.66;43.65
26859;BME280;14429;48.346;16.338;2022-08-05T01:40:43;99470.72;;;26.18;41.48
26859;BME280;14429;48.346;16.338;2022-08-05T01:43:10;99472.00;;;26.41;41.72
26859;BME280;14429;48.346;16.338;2022-08-05T01:45:39;99460.13;;;26.02;42.36
26859;BME280;14429;48.346;16.338;2022-08-05T01:48:05;99457.91;;;26.37;43.92
26859;BME280;14429;48.346;16.338;2022-08-05T01:50:37;99456.19;;;26.62;43.47
26859;BME280;14429;48.346;16.338;2022-08-05T01:53:06;99455.59;;;26.53;43.56
26859;BME280;14429;48.346;16.338;2022-08-05T01:55:32;99446.31;;;26.54;42.86
26859;BME280;14429;48.346;16.338;2022-08-05T01:58:00;99452.31;;;25.80;44.75
26859;BME280;14429;48.346;16.338;2022-08-05T02:00:28;99453.13;;;25.21;44.23
26859;BME280;14429;48.346;16.338;2022-08-05T02:02:59;99446.72;;;26.90;43.07
26859;BME280;14429;48.346;16.338;2022-08-05T02:05:30;99451.47;;;25.79;42.86
26859;BME280;14429;48.346;16.338;2022-08-05T02:07:57;99449.84;;;26.04;42.36
26859;BME280;14429;48.346;16.338;2022-08-05T02:10:25;99442.41;;;25.66;42.99
26859;BME280;14429;48.346;16.338;2022-08-05T02:12:55;99445.03;;;26.12;43.62
26859;BME280;14429;48.346;16.338;2022-08-05T02:15:27;99450.47;;;25.93;42.02
26859;BME280;14429;48.346;16.338;2022-08-05T02:18:00;99449.25;;;26.08;43.67
26859;BME280;14429;48.346;16.338;2022-08-05T02:20:33;99456.66;;;26.59;43.61
26859;BME280;14429;48.346;16.338;2022-08-05T02:23:03;99447.97;;;26.94;42.82
26859;BME280;14429;48.346;16.338;2022-08-05T02:25:33;99444.88;;;27.46;40.06
26859;BME280;14429;48.346;16.338;2022-08-05T02:28:01;99437.53;;;27.77;41.10
26859;BME280;14429;48.346;16.338;2022-08-05T02:30:31;99431.38;;;27.94;40.57
26859;BME280;14429;48.346;16.338;2022-08-05T02:32:59;99433.41;;;27.62;39.95
26859;BME280;14429;48.346;16.338;2022-08-05T02:35:26;99443.38;;;26.43;40.07
26859;BME280;14429;48.346;16.338;2022-08-05T02:37:54;99431.81;;;27.91;40.33
26859;BME280;14429;48.346;16.338;2022-08-05T02:40:21;99432.56;;;27.68;40.25
26859;BME280;14429;48.346;16.338;2022-08-05T02:42:48;99428.22;;;26.79;40.89
26859;BME280;14429;48.346;16.338;2022-08-05T02:45:15;99423.53;;;27.61;38.62
26859;BME280;14429;48.346;16.338;2022-08-05T02:47:42;99427.22;;;28.16;40.01
26859;BME280;14429;48.346;16.338;2022-08-05T02:50:10;99423.75;;;27.60;40.80
26859;BME280;14429;48.346;16.338;2022-08-05T02:52:36;99430.06;;;28.27;39.81
26859;BME280;14429;48.346;16.338;2022-08-05T02:55:04;99422.44;;;28.29;39.55
26859;BME280;14429;48.346;16.338;2022-08-05T02:57:32;99425.38;;;27.11;38.01
26859;BME280;14429;48.346;16.338;2022-08-05T02:59:57;99423.41;;;28.17;39.76
26859;BME280;14429;48.346;16.338;2022-08-05T03:02:25;99431.44;;;27.32;37.35
26859;BME280;14429;48.346;16.338;2022-08-05T03:04:53;99421.53;;;28.11;39.88
26859;BME280;14429;48.346;16.338;2022-08-05T03:07:20;99426.19;;;27.74;40.65
26859;BME280;14429;48.346;16.338;2022-08-05T03:09:47;99427.34;;;28.27;39.72
26859;BME280;14429;48.346;16.338;2022-08-05T03:12:28;99420.44;;;27.82;37.41
26859;BME280;14429;48.346;16.338;2022-08-05T03:14:54;99418.59;;;28.37;39.08
26859;BME280;14429;48.346;16.338;2022-08-05T03:17:19;99425.09;;;28.66;38.79
26859;BME280;14429;48.346;16.338;2022-08-05T03:19:45;99425.00;;;28.79;38.43
26859;BME280;14429;48.346;16.338;2022-08-05T03:22:10;99423.00;;;28.68;38.53
26859;BME280;14429;48.346;16.338;2022-08-05T03:24:37;99425.75;;;28.86;38.23
26859;BME280;14429;48.346;16.338;2022-08-05T03:27:03;99417.88;;;28.89;38.05
26859;BME280;14429;48.346;16.338;2022-08-05T03:29:28;99414.25;;;27.99;39.65
26859;BME280;14429;48.346;16.338;2022-08-05T03:31:54;99423.44;;;28.65;38.72
26859;BME280;14429;48.346;16.338;2022-08-05T03:34:20;99424.31;;;28.59;37.87
26859;BME280;14429;48.346;16.338;2022-08-05T03:36:45;99420.72;;;28.83;38.19
26859;BME280;14429;48.346;16.338;2022-08-05T03:39:11;99423.31;;;28.96;37.81
26859;BME280;14429;48.346;16.338;2022-08-05T03:41:38;99424.81;;;27.95;38.95
26859;BME280;14429;48.346;16.338;2022-08-05T03:44:03;99420.25;;;28.68;38.50
26859;BME280;14429;48.346;16.338;2022-08-05T03:46:29;99420.88;;;28.88;37.93
26859;BME280;14429;48.346;16.338;2022-08-05T03:48:54;99433.47;;;28.95;38.23
26859;BME280;14429;48.346;16.338;2022-08-05T03:51:23;99425.28;;;28.89;38.06
26859;BME280;14429;48.346;16.338;2022-08-05T03:53:56;99429.00;;;29.00;37.89
26859;BME280;14429;48.346;16.338;2022-08-05T03:56:26;99423.19;;;29.08;37.86
26859;BME280;14429;48.346;16.338;2022-08-05T03:58:56;99442.94;;;27.96;39.91
26859;BME280;14429;48.346;16.338;2022-08-05T04:01:24;99432.16;;;28.80;38.45
26859;BME280;14429;48.346;16.338;2022-08-05T04:03:50;99434.94;;;28.98;38.04
26859;BME280;14429;48.346;16.338;2022-08-05T04:06:17;99429.00;;;29.00;37.65
26859;BME280;14429;48.346;16.338;2022-08-05T04:08:43;99430.22;;;29.04;37.82
26859;BME280;14429;48.346;16.338;2022-08-05T04:11:09;99427.66;;;29.09;37.49
26859;BME280;14429;48.346;16.338;2022-08-05T04:13:38;99418.34;;;29.10;37.56
26859;BME280;14429;48.346;16.338;2022-08-05T04:16:06;99420.44;;;29.08;37.87
26859;BME280;14429;48.346;16.338;2022-08-05T04:18:31;99417.03;;;29.13;37.80
26859;BME280;14429;48.346;16.338;2022-08-05T04:20:57;99423.38;;;29.13;37.40
26859;BME280;14429;48.346;16.338;2022-08-05T04:23:24;99421.53;;;29.07;38.07
26859;BME280;14429;48.346;16.338;2022-08-05T04:25:49;99423.59;;;29.12;37.76
26859;BME280;14429;48.346;16.338;2022-08-05T04:28:15;99414.50;;;29.11;37.50
26859;BME280;14429;48.346;16.338;2022-08-05T04:30:40;99421.91;;;29.11;37.65
26859;BME280;14429;48.346;16.338;2022-08-05T04:33:07;99423.38;;;29.13;37.42
26859;BME280;14429;48.346;16.338;2022-08-05T04:35:33;99423.19;;;29.08;37.90
26859;BME280;14429;48.346;16.338;2022-08-05T04:37:58;99420.94;;;29.05;37.70
26859;BME280;14429;48.346;16.338;2022-08-05T04:40:24;99417.50;;;29.10;37.91
26859;BME280;14429;48.346;16.338;2022-08-05T04:42:49;99412.59;;;29.12;37.92
26859;BME280;14429;48.346;16.338;2022-08-05T04:45:15;99414.44;;;29.18;37.38
26859;BME280;14429;48.346;16.338;2022-08-05T04:47:40;99417.41;;;29.34;37.05
26859;BME280;14429;48.346;16.338;2022-08-05T04:50:08;99417.09;;;29.42;37.27
26859;BME280;14429;48.346;16.338;2022-08-05T04:52:33;99414.50;;;29.47;37.05
26859;BME280;14429;48.346;16.338;2022-08-05T04:54:59;99425.03;;;29.50;36.86
26859;BME280;14429;48.346;16.338;2022-08-05T04:57:24;99420.22;;;29.63;36.70
26859;BME280;14429;48.346;16.338;2022-08-05T04:59:50;99418.94;;;29.65;36.31
26859;BME280;14429;48.346;16.338;2022-08-05T05:02:15;99420.34;;;29.68;36.49
26859;BME280;14429;48.346;16.338;2022-08-05T05:04:41;99416.94;;;29.72;36.61
26859;BME280;14429;48.346;16.338;2022-08-05T05:07:08;99416.00;;;29.78;36.12
26859;BME280;14429;48.346;16.338;2022-08-05T05:09:33;99417.53;;;29.74;36.40
26859;BME280;14429;48.346;16.338;2022-08-05T05:11:59;99414.72;;;29.92;35.86
26859;BME280;14429;48.346;16.338;2022-08-05T05:14:24;99426.94;;;29.96;35.82
26859;BME280;14429;48.346;16.338;2022-08-05T05:16:49;99415.31;;;30.11;35.86
26859;BME280;14429;48.346;16.338;2022-08-05T05:19:15;99418.91;;;30.23;35.73
26859;BME280;14429;48.346;16.338;2022-08-05T05:21:40;99425.63;;;30.27;35.55
26859;BME280;14429;48.346;16.338;2022-08-05T05:24:07;99418.72;;;30.36;35.32
26859;BME280;14429;48.346;16.338;2022-08-05T05:26:33;99413.38;;;30.97;34.08
26859;BME280;14429;48.346;16.338;2022-08-05T05:28:59;99413.75;;;30.78;34.34
26859;BME280;14429;48.346;16.338;2022-08-05T05:31:24;99414.38;;;30.80;34.38
26859;BME280;14429;48.346;16.338;2022-08-05T05:33:50;99412.81;;;30.84;34.46
26859;BME280;14429;48.346;16.338;2022-08-05T05:36:15;99416.16;;;30.86;34.07
26859;BME280;14429;48.346;16.338;2022-08-05T05:38:41;99420.63;;;31.60;32.08
26859;BME280;14429;48.346;16.338;2022-08-05T05:41:08;99415.41;;;32.02;31.13
26859;BME280;14429;48.346;16.338;2022-08-05T05:43:33;99411.53;;;31.87;31.66
26859;BME280;14429;48.346;16.338;2022-08-05T05:45:59;99415.97;;;31.49;33.29
26859;BME280;14429;48.346;16.338;2022-08-05T05:48:24;99420.38;;;31.50;32.99
26859;BME280;14429;48.346;16.338;2022-08-05T05:50:50;99421.16;;;31.34;33.30
26859;BME280;14429;48.346;16.338;2022-08-05T05:53:15;99420.19;;;31.40;33.13
26859;BME280;14429;48.346;16.338;2022-08-05T05:55:41;99425.56;;;32.13;31.40
26859;BME280;14429;48.346;16.338;2022-08-05T05:58:07;99426.28;;;31.92;32.21
26859;BME280;14429;48.346;16.338;2022-08-05T06:00:33;99426.28;;;31.92;32.22
26859;BME280;14429;48.346;16.338;2022-08-05T06:02:59;99435.03;;;31.62;32.74
26859;BME280;14429;48.346;16.338;2022-08-05T06:05:25;99433.38;;;31.38;32.95
26859;BME280;14429;48.346;16.338;2022-08-05T06:07:50;99434.59;;;30.97;34.12
26859;BME280;14429;48.346;16.338;2022-08-05T06:10:16;99431.00;;;31.08;33.64
26859;BME280;14429;48.346;16.338;2022-08-05T06:12:41;99433.41;;;31.04;34.07
26859;BME280;14429;48.346;16.338;2022-08-05T06:15:09;99434.59;;;30.97;34.24
26859;BME280;14429;48.346;16.338;2022-08-05T06:17:35;99439.97;;;30.58;34.76
26859;BME280;14429;48.346;16.338;2022-08-05T06:20:01;99435.44;;;30.63;34.84
26859;BME280;14429;48.346;16.338;2022-08-05T06:22:28;99442.63;;;30.64;34.29
26859;BME280;14429;48.346;16.338;2022-08-05T06:24:54;99433.00;;;30.56;34.79
26859;BME280;14429;48.346;16.338;2022-08-05T06:27:19;99432.22;;;29.33;37.31
26859;BME280;14429;48.346;16.338;2022-08-05T06:29:45;99432.09;;;29.92;35.95
26859;BME280;14429;48.346;16.338;2022-08-05T06:32:12;99434.81;;;30.10;35.69
26859;BME280;14429;48.346;16.338;2022-08-05T06:34:38;99441.03;;;29.88;35.95
26859;BME280;14429;48.346;16.338;2022-08-05T06:37:03;99451.13;;;30.23;35.84
26859;BME280;14429;48.346;16.338;2022-08-05T06:39:29;99449.53;;;30.15;36.52
26859;BME280;14429;48.346;16.338;2022-08-05T06:41:55;99453.84;;;30.11;35.89
26859;BME280;14429;48.346;16.338;2022-08-05T06:44:20;99460.72;;;30.20;35.86
26859;BME280;14429;48.346;16.338;2022-08-05T06:46:46;99459.16;;;30.24;35.71
26859;BME280;14429;48.346;16.338;2022-08-05T06:49:13;99452.31;;;30.15;36.17
26859;BME280;14429;48.346;16.338;2022-08-05T06:51:38;99446.81;;;29.98;36.43
26859;BME280;14429;48.346;16.338;2022-08-05T06:54:03;99445.88;;;30.04;36.44
26859;BME280;14429;48.346;16.338;2022-08-05T06:56:30;99444.78;;;30.22;35.66
26859;BME280;14429;48.346;16.338;2022-08-05T06:58:56;99438.06;;;30.18;36.42
26859;BME280;14429;48.346;16.338;2022-08-05T07:01:21;99438.81;;;30.25;35.75
26859;BME280;14429;48.346;16.338;2022-08-05T07:03:47;99436.53;;;30.05;36.53
26859;BME280;14429;48.346;16.338;2022-08-05T07:06:13;99436.88;;;29.97;36.60
26859;BME280;14429;48.346;16.338;2022-08-05T07:08:39;99437.38;;;30.05;36.30
26859;BME280;14429;48.346;16.338;2022-08-05T07:11:05;99439.16;;;30.00;37.12
26859;BME280;14429;48.346;16.338;2022-08-05T07:13:33;99445.44;;;30.07;36.65
26859;BME280;14429;48.346;16.338;2022-08-05T07:15:58;99440.69;;;30.13;36.63
26859;BME280;14429;48.346;16.338;2022-08-05T07:18:24;99447.53;;;30.22;36.40
26859;BME280;14429;48.346;16.338;2022-08-05T07:20:49;99438.50;;;30.44;35.99
26859;BME280;14429;48.346;16.338;2022-08-05T07:23:16;99432.94;;;30.73;35.47
26859;BME280;14429;48.346;16.338;2022-08-05T07:25:41;99434.34;;;30.76;35.71
26859;BME280;14429;48.346;16.338;2022-08-05T07:28:07;99436.41;;;30.69;35.39
26859;BME280;14429;48.346;16.338;2022-08-05T07:30:33;99432.47;;;30.99;35.53
26859;BME280;14429;48.346;16.338;2022-08-05T07:32:59;99436.28;;;30.75;35.67
26859;BME280;14429;48.346;16.338;2022-08-05T07:35:25;99431.00;;;30.74;35.38
26859;BME280;14429;48.346;16.338;2022-08-05T07:37:50;99440.28;;;30.39;35.97
26859;BME280;14429;48.346;16.338;2022-08-05T07:40:17;99436.03;;;30.65;35.14
26859;BME280;14429;48.346;16.338;2022-08-05T07:42:43;99443.28;;;30.60;35.86
26859;BME280;14429;48.346;16.338;2022-08-05T07:45:09;99429.97;;;30.46;36.51
26859;BME280;14429;48.346;16.338;2022-08-05T07:47:34;99433.72;;;30.51;35.91
26859;BME280;14429;48.346;16.338;2022-08-05T07:50:00;99434.19;;;30.48;35.78
26859;BME280;14429;48.346;16.338;2022-08-05T07:52:25;99441.25;;;30.56;36.00
26859;BME280;14429;48.346;16.338;2022-08-05T07:54:51;99435.75;;;30.56;35.69
26859;BME280;14429;48.346;16.338;2022-08-05T07:57:18;99439.81;;;30.53;35.73
26859;BME280;14429;48.346;16.338;2022-08-05T07:59:43;99448.19;;;30.36;36.35
26859;BME280;14429;48.346;16.338;2022-08-05T08:02:09;99444.31;;;30.25;36.32
26859;BME280;14429;48.346;16.338;2022-08-05T08:04:34;99438.53;;;30.15;36.71
26859;BME280;14429;48.346;16.338;2022-08-05T08:07:00;99441.28;;;30.15;36.70
26859;BME280;14429;48.346;16.338;2022-08-05T08:09:25;99440.94;;;30.23;36.67
26859;BME280;14429;48.346;16.338;2022-08-05T08:11:51;99435.94;;;30.20;36.61
26859;BME280;14429;48.346;16.338;2022-08-05T08:14:18;99427.97;;;30.12;37.24
26859;BME280;14429;48.346;16.338;2022-08-05T08:16:44;99434.03;;;30.03;37.72
26859;BME280;14429;48.346;16.338;2022-08-05T08:19:09;99434.22;;;30.19;36.51
26859;BME280;14429;48.346;16.338;2022-08-05T08:21:35;99439.75;;;30.19;37.04
26859;BME280;14429;48.346;16.338;2022-08-05T08:24:00;99434.22;;;30.19;36.86
26859;BME280;14429;48.346;16.338;2022-08-05T08:26:26;99438.91;;;30.19;36.92
26859;BME280;14429;48.346;16.338;2022-08-05T08:28:51;99428.84;;;30.13;37.32
26859;BME280;14429;48.346;16.338;2022-08-05T08:31:18;99434.22;;;30.19;37.00
26859;BME280;14429;48.346;16.338;2022-08-05T08:33:44;99426.97;;;30.25;37.17
26859;BME280;14429;48.346;16.338;2022-08-05T08:36:10;99434.63;;;30.34;36.69
26859;BME280;14429;48.346;16.338;2022-08-05T08:38:36;99432.69;;;30.23;36.67
26859;BME280;14429;48.346;16.338;2022-08-05T08:41:04;99432.56;;;30.18;37.62
26859;BME280;14429;48.346;16.338;2022-08-05T08:43:31;99425.50;;;30.22;37.04
26859;BME280;14429;48.346;16.338;2022-08-05T08:45:58;99421.31;;;30.31;37.05
26859;BME280;14429;48.346;16.338;2022-08-05T08:48:28;99424.69;;;30.33;37.08
26859;BME280;14429;48.346;16.338;2022-08-05T08:50:55;99419.94;;;30.40;36.78
26859;BME280;14429;48.346;16.338;2022-08-05T08:53:21;99426.53;;;30.39;36.82
26859;BME280;14429;48.346;16.338;2022-08-05T08:55:49;99422.09;;;30.61;37.11
26859;BME280;14429;48.346;16.338;2022-08-05T08:58:15;99425.09;;;30.59;37.20
26859;BME280;14429;48.346;16.338;2022-08-05T09:00:40;99422.31;;;30.48;36.44
26859;BME280;14429;48.346;16.338;2022-08-05T09:03:06;99419.31;;;30.49;36.79
26859;BME280;14429;48.346;16.338;2022-08-05T09:05:33;99422.69;;;30.51;36.53
26859;BME280;14429;48.346;16.338;2022-08-05T09:07:59;99423.19;;;30.60;37.59
26859;BME280;14429;48.346;16.338;2022-08-05T09:10:25;99423.31;;;30.87;36.64
26859;BME280;14429;48.346;16.338;2022-08-05T09:12:50;99426.69;;;30.66;36.09
26859;BME280;14429;48.346;16.338;2022-08-05T09:15:16;99429.28;;;30.39;36.71
26859;BME280;14429;48.346;16.338;2022-08-05T09:17:41;99423.94;;;30.66;36.60
26859;BME280;14429;48.346;16.338;2022-08-05T09:20:08;99429.31;;;30.62;36.37
26859;BME280;14429;48.346;16.338;2022-08-05T09:23:05;99428.44;;;30.50;36.81
26859;BME280;14429;48.346;16.338;2022-08-05T09:25:31;99425.66;;;30.50;36.39
26859;BME280;14429;48.346;16.338;2022-08-05T09:28:07;99427.00;;;30.47;36.97
26859;BME280;14429;48.346;16.338;2022-08-05T09:30:33;99417.97;;;30.81;36.64
26859;BME280;14429;48.346;16.338;2022-08-05T09:33:00;99419.25;;;31.01;35.99
26859;BME280;14429;48.346;16.338;2022-08-05T09:35:26;99422.63;;;31.03;36.20
26859;BME280;14429;48.346;16.338;2022-08-05T09:37:53;99422.13;;;31.06;36.54
26859;BME280;14429;48.346;16.338;2022-08-05T09:40:31;99415.66;;;30.89;36.07
26859;BME280;14429;48.346;16.338;2022-08-05T09:42:56;99423.94;;;31.00;35.76
26859;BME280;14429;48.346;16.338;2022-08-05T09:45:33;99415.91;;;31.21;36.36
26859;BME280;14429;48.346;16.338;2022-08-05T09:47:59;99415.06;;;31.10;35.47
26859;BME280;14429;48.346;16.338;2022-08-05T09:50:33;99413.03;;;31.17;37.05
26859;BME280;14429;48.346;16.338;2022-08-05T09:52:59;99409.41;;;31.05;36.08
26859;BME280;14429;48.346;16.338;2022-08-05T09:55:24;99407.63;;;31.10;36.14
26859;BME280;14429;48.346;16.338;2022-08-05T09:57:51;99410.25;;;31.05;35.76
26859;BME280;14429;48.346;16.338;2022-08-05T10:00:18;99413.97;;;31.11;35.76
26859;BME280;14429;48.346;16.338;2022-08-05T10:02:46;99410.06;;;31.18;36.02
26859;BME280;14429;48.346;16.338;2022-08-05T10:05:13;99411.19;;;31.45;36.85
26859;BME280;14429;48.346;16.338;2022-08-05T10:07:48;99407.97;;;31.36;35.53
26859;BME280;14429;48.346;16.338;2022-08-05T10:10:14;99407.16;;;30.79;36.53
26859;BME280;14429;48.346;16.338;2022-08-05T10:12:42;99410.41;;;30.99;36.54
26859;BME280;14429;48.346;16.338;2022-08-05T10:15:17;99405.97;;;30.75;36.89
26859;BME280;14429;48.346;16.338;2022-08-05T10:17:44;99395.28;;;30.67;36.82
26859;BME280;14429;48.346;16.338;2022-08-05T10:20:09;99407.03;;;30.97;37.25
26859;BME280;14429;48.346;16.338;2022-08-05T10:22:35;99398.31;;;31.50;36.38
26859;BME280;14429;48.346;16.338;2022-08-05T10:25:01;99397.06;;;31.30;35.72
26859;BME280;14429;48.346;16.338;2022-08-05T10:27:29;99393.53;;;31.45;37.48
26859;BME280;14429;48.346;16.338;2022-08-05T10:29:55;99395.78;;;31.60;36.60
26859;BME280;14429;48.346;16.338;2022-08-05T10:32:22;99397.66;;;31.32;35.87
26859;BME280;14429;48.346;16.338;2022-08-05T10:34:48;99393.84;;;31.72;36.16
26859;BME280;14429;48.346;16.338;2022-08-05T10:37:14;99392.97;;;31.99;36.30
26859;BME280;14429;48.346;16.338;2022-08-05T10:39:41;99394.63;;;31.83;35.01
26859;BME280;14429;48.346;16.338;2022-08-05T10:42:12;99394.09;;;31.59;35.36
26859;BME280;14429;48.346;16.338;2022-08-05T10:44:43;99388.84;;;31.46;35.38
26859;BME280;14429;48.346;16.338;2022-08-05T10:47:10;99399.84;;;31.18;36.32
26859;BME280;14429;48.346;16.338;2022-08-05T10:50:02;99389.38;;;31.32;36.22
26859;BME280;14429;48.346;16.338;2022-08-05T10:52:39;99377.38;;;31.76;36.38
26859;BME280;14429;48.346;16.338;2022-08-05T10:55:06;99383.53;;;32.38;36.04
26859;BME280;14429;48.346;16.338;2022-08-05T10:57:32;99376.38;;;32.70;35.40
26859;BME280;14429;48.346;16.338;2022-08-05T11:00:13;99377.31;;;32.80;35.19
26859;BME280;14429;48.346;16.338;2022-08-05T11:03:09;99377.00;;;32.77;35.56
26859;BME280;14429;48.346;16.338;2022-08-05T11:05:37;99364.22;;;33.08;34.35
26859;BME280;14429;48.346;16.338;2022-08-05T11:08:04;99366.59;;;33.00;35.48
26859;BME280;14429;48.346;16.338;2022-08-05T11:10:33;99375.56;;;33.28;34.53
26859;BME280;14429;48.346;16.338;2022-08-05T11:12:59;99375.13;;;32.66;33.88
26859;BME280;14429;48.346;16.338;2022-08-05T11:15:25;99369.75;;;33.08;35.03
26859;BME280;14429;48.346;16.338;2022-08-05T11:17:52;99370.09;;;32.95;35.99
26859;BME280;14429;48.346;16.338;2022-08-05T11:20:33;99365.38;;;33.12;34.89
26859;BME280;14429;48.346;16.338;2022-08-05T11:23:30;99373.16;;;32.78;34.63
26859;BME280;14429;48.346;16.338;2022-08-05T11:26:00;99367.94;;;32.65;35.83
26859;BME280;14429;48.346;16.338;2022-08-05T11:28:40;99361.44;;;32.71;36.76
26859;BME280;14429;48.346;16.338;2022-08-05T11:31:23;99354.56;;;32.41;37.28
26859;BME280;14429;48.346;16.338;2022-08-05T11:33:54;99363.44;;;32.27;35.46
26859;BME280;14429;48.346;16.338;2022-08-05T11:36:38;99360.94;;;32.25;35.96
26859;BME280;14429;48.346;16.338;2022-08-05T11:39:06;99361.56;;;31.61;36.25
26859;BME280;14429;48.346;16.338;2022-08-05T11:41:32;99363.69;;;31.98;37.91
26859;BME280;14429;48.346;16.338;2022-08-05T11:43:59;99364.75;;;32.24;36.35
26859;BME280;14429;48.346;16.338;2022-08-05T11:46:26;99366.25;;;32.96;35.38
26859;BME280;14429;48.346;16.338;2022-08-05T11:48:52;99355.97;;;33.13;35.99
26859;BME280;14429;48.346;16.338;2022-08-05T11:51:18;99356.34;;;33.00;34.47
26859;BME280;14429;48.346;16.338;2022-08-05T11:53:44;99354.88;;;32.60;35.13
26859;BME280;14429;48.346;16.338;2022-08-05T11:56:11;99360.56;;;33.24;36.34
26859;BME280;14429;48.346;16.338;2022-08-05T11:58:39;99361.50;;;33.13;35.94
26859;BME280;14429;48.346;16.338;2022-08-05T12:01:06;99360.72;;;32.96;34.97
26859;BME280;14429;48.346;16.338;2022-08-05T12:03:41;99360.00;;;33.22;35.03
26859;BME280;14429;48.346;16.338;2022-08-05T12:06:06;99366.91;;;33.40;34.62
26859;BME280;14429;48.346;16.338;2022-08-05T12:08:39;99361.44;;;32.71;35.21
26859;BME280;14429;48.346;16.338;2022-08-05T12:11:07;99361.00;;;32.79;35.10
26859;BME280;14429;48.346;16.338;2022-08-05T12:13:35;99362.09;;;32.45;35.86
26859;BME280;14429;48.346;16.338;2022-08-05T12:16:01;99355.97;;;32.76;36.37
26859;BME280;14429;48.346;16.338;2022-08-05T12:18:30;99350.59;;;32.85;35.95
26859;BME280;14429;48.346;16.338;2022-08-05T12:21:08;99352.22;;;32.82;35.52
26859;BME280;14429;48.346;16.338;2022-08-05T12:23:34;99357.25;;;32.52;35.75
26859;BME280;14429;48.346;16.338;2022-08-05T12:25:59;99352.59;;;33.27;36.54
26859;BME280;14429;48.346;16.338;2022-08-05T12:28:36;99357.81;;;32.86;35.16
26859;BME280;14429;48.346;16.338;2022-08-05T12:31:02;99359.25;;;32.73;36.09
26859;BME280;14429;48.346;16.338;2022-08-05T12:33:29;99352.72;;;32.79;35.40
26859;BME280;14429;48.346;16.338;2022-08-05T12:35:55;99353.22;;;32.43;35.86
26859;BME280;14429;48.346;16.338;2022-08-05T12:38:21;99346.38;;;32.29;36.12
26859;BME280;14429;48.346;16.338;2022-08-05T12:40:47;99357.41;;;32.46;35.84
26859;BME280;14429;48.346;16.338;2022-08-05T12:43:12;99353.72;;;32.56;35.45
26859;BME280;14429;48.346;16.338;2022-08-05T12:45:50;99350.06;;;32.51;35.65
26859;BME280;14429;48.346;16.338;2022-08-05T12:48:16;99350.53;;;32.32;36.28
26859;BME280;14429;48.346;16.338;2022-08-05T12:50:41;99343.75;;;32.39;36.10
26859;BME280;14429;48.346;16.338;2022-08-05T12:53:07;99345.16;;;32.58;35.60